Bahia Uno — ECFT — position and weather

sailwx.info

Track history (hours):
 
Tides and Currents Weather Stations Pressure Air Temp Water Temp Dewpoint Dewpoint Depression Visibility Wind Speed Wind Dir Waves Ship Positions

Bahia Uno

Last reported at 2017-Jan-19 06:33 UTC. Time now 2017-Jan-20 05:55 UTC.
Position N 36°09' W 005°25'.

Length 70 m; draft 5.5 m.

Type: Ship. MMSI: 224127820.

Date/timePositionNaut miles runAvg speedWind from/ knotsBaromVisibWave heightAir tempDewpointWater temp
2017-Jan-19 06:33N 36°09' W 005°25'0 0.0
2017-Jan-19 05:33N 36°09' W 005°25'1 0.2
2017-Jan-19 00:06N 36°08' W 005°26'0 0.0
2017-Jan-18 23:29N 36°08' W 005°26'1 0.0
2017-Jan-17 15:27N 36°08' W 005°25'2 1.8
2017-Jan-17 14:23N 36°06' W 005°25'0 0.0
2017-Jan-17 13:27N 36°06' W 005°25'1 0.6
2017-Jan-17 12:33N 36°06' W 005°24'0 0.0
2017-Jan-17 11:12N 36°06' W 005°24'3 1.1
2017-Jan-17 08:29N 36°09' W 005°26'0 0.0
2017-Jan-17 07:20N 36°09' W 005°26'0 0.0
2017-Jan-17 06:31N 36°09' W 005°26'0 0.0
2017-Jan-17 05:27N 36°09' W 005°26'0 0.0
2017-Jan-17 04:33N 36°09' W 005°26'0 0.2
2017-Jan-17 02:26N 36°08' W 005°26'0 0.0
2017-Jan-17 00:12N 36°08' W 005°26'  
2017-Jan-11 22:29N 36°09' W 005°26'4 1.3
2017-Jan-11 19:33N 36°05' W 005°24'3 0.3
2017-Jan-11 07:19N 36°08' W 005°26'0 0.0
2017-Jan-11 06:33N 36°08' W 005°26'0 0.0
2017-Jan-11 05:33N 36°08' W 005°26'0 0.0
2017-Jan-11 04:33N 36°08' W 005°26'0 0.0
2017-Jan-11 03:26N 36°08' W 005°26'0 0.0
2017-Jan-11 02:32N 36°08' W 005°26'0 0.0
2017-Jan-11 01:33N 36°08' W 005°26'0 0.0
2017-Jan-11 00:33N 36°08' W 005°26'0 0.0
2017-Jan-10 06:31N 36°08' W 005°26'0 0.0
2017-Jan-10 05:33N 36°08' W 005°26'0 0.0
2017-Jan-10 04:27N 36°08' W 005°26'  
Track history (hours):
 
Tides and Currents Weather Stations Pressure Air Temp Water Temp Dewpoint Dewpoint Depression Visibility Wind Speed Wind Dir Waves Ship Positions

Bahia Uno

Last reported at 2017-Jan-19 06:33 UTC. Time now 2017-Jan-20 05:55 UTC.
Position N 36°09' W 005°25'.

Length 70 m; draft 5.5 m.

Type: Ship. MMSI: 224127820.

Date/timePositionNaut miles runAvg speedWind from/ knotsBaromVisibWave heightAir tempDewpointWater temp
2017-Jan-19 06:33N 36°09' W 005°25'0 0.0
2017-Jan-19 05:33N 36°09' W 005°25'1 0.2
2017-Jan-19 00:06N 36°08' W 005°26'0 0.0
2017-Jan-18 23:29N 36°08' W 005°26'1 0.0
2017-Jan-17 15:27N 36°08' W 005°25'2 1.8
2017-Jan-17 14:23N 36°06' W 005°25'0 0.0
2017-Jan-17 13:27N 36°06' W 005°25'1 0.6
2017-Jan-17 12:33N 36°06' W 005°24'0 0.0
2017-Jan-17 11:12N 36°06' W 005°24'3 1.1
2017-Jan-17 08:29N 36°09' W 005°26'0 0.0
2017-Jan-17 07:20N 36°09' W 005°26'0 0.0
2017-Jan-17 06:31N 36°09' W 005°26'0 0.0
2017-Jan-17 05:27N 36°09' W 005°26'0 0.0
2017-Jan-17 04:33N 36°09' W 005°26'0 0.2
2017-Jan-17 02:26N 36°08' W 005°26'0 0.0
2017-Jan-17 00:12N 36°08' W 005°26'  
2017-Jan-11 22:29N 36°09' W 005°26'4 1.3
2017-Jan-11 19:33N 36°05' W 005°24'3 0.3
2017-Jan-11 07:19N 36°08' W 005°26'0 0.0
2017-Jan-11 06:33N 36°08' W 005°26'0 0.0
2017-Jan-11 05:33N 36°08' W 005°26'0 0.0
2017-Jan-11 04:33N 36°08' W 005°26'0 0.0
2017-Jan-11 03:26N 36°08' W 005°26'0 0.0
2017-Jan-11 02:32N 36°08' W 005°26'0 0.0
2017-Jan-11 01:33N 36°08' W 005°26'0 0.0
2017-Jan-11 00:33N 36°08' W 005°26'0 0.0
2017-Jan-10 06:31N 36°08' W 005°26'0 0.0
2017-Jan-10 05:33N 36°08' W 005°26'0 0.0
2017-Jan-10 04:27N 36°08' W 005°26'  

Dump ship's entire track history